Plymouth, Washington
Current Conditions -  °F | °C
As of 11:53 PM on Wednesday 17 Dec 2014 (Local Time) from KHRI Reporting Station
Haze Haze  
Wind Chill: 36°   Ceiling: Unl
Heat Index: 36°   Visibility: 3mi
Dew Point: 35°   Wind: 3mph
Humidity: 97%   Direction: 150°SSE
Pressure: 30.01"   Gusts: NA
Location:  45.93°N, 119.35°W
Report Text: KHRI 180753Z AUTO 15003KT 3SM BR CLR 02/02 A3001 RMK AO2 SLP165 T00220017 400440022
Loading
Personal Weather Stations






























Interactive Weather Map New forecast layout! Learn more

10-Day Weather Forecast

Advertisements
Track Severe Weather on mobile